Apple Cup Yearling Classic - Memorial Day Loft Settling Inventory

Station: loft Inventory - T Race

Distance: 10 Miles    

Release: 28-May-2018 09:00

Weather Release:    Arrival:

Wind at Release:     Wind at Arrival:

Temp at Release: °    Temp at Arrival: °

Lofts: 152

Birds: 622

Clocked: 621

843 Birds In The Loft
Drops Pos Breeder Pigeon Name Color Sex Ent Arrival Speed To Win Eligible
201 L & L Breeding Station - WA 8251-AU18-LL Blue Skies BB H 2 11:13:06.98 132.215 00:01:56 Yes
202 Ken & Roly - NM 8849-AU18-EASL DC H 7 11:13:07.73 132.203 00:01:57 Yes
203 Crazyfast Loft/Peter - MN 4702-AU18-FOYS BB H 3 11:13:11.63 132.138 00:02:01 Yes
204 Dream Union - DC 0306-AU18-TFC BC H 2 11:13:11.68 132.137 00:02:01 Yes
205 L S U Loft - LA 0166-AU18-LSU BC H 6 11:13:12.60 132.122 00:02:02 Yes
206 Shamrock Loft - CO 8980-AU18-PPH Mustang BC H 3 11:13:13.53 132.107 00:02:02 Yes
207 Callejas Loft - IL 1843-AU18-CALL BC H 3 11:13:13.94 132.100 00:02:03 Yes
208 Black Oak Loft - AR 0024-AU18-HYMS Black Oak 24 BB H 5 11:13:14.72 132.087 00:02:04 Yes
209 Irishsyndicatelofts - AZ 0104-AU18-IRSH BC H 1 11:13:15.46 132.075 00:02:04 Yes
210 John Partridge - CA 1056-AU18-PASO BB H 2 11:13:17.48 132.042 00:02:06 Yes
211 Ganus Family Loft - IN 0381-AU18-GFL BC H 5 11:13:17.52 132.041 00:02:06 Yes
212 Nanez Family Lofts - WI 8218-AU18-NFL BB H 4 11:13:19.09 132.015 00:02:08 Yes
213 Dream Team - VT 18865-AU18-DT BB H 4 11:13:19.87 132.002 00:02:09 Yes
214 Black Oak Loft - AR 0019-AU18-HYMS Black Oak 19 BB H 6 11:13:20.52 131.991 00:02:10 Yes
215 Marengo Creek Farms - AL 3017-AU18-MCF BB H 5 11:13:20.79 131.987 00:02:10 Yes
216 A P C Loft - TX 18093-AU18-APC BGRZ H 6 11:13:22.36 131.961 00:02:11 Yes
217 Sonder Loft - CA 8960-AU18-JEDS BC H 3 11:13:22.46 131.959 00:02:11 Yes
218 Red Ass Ranch - TX 0315-AU18-RAR BB H 4 11:13:22.67 131.956 00:02:12 Yes
219 American Lofts - OR 2547-AU18-CORP OPAL H 3 11:13:23.61 131.940 00:02:13 Yes
220 Valdes & Rudy Loft - FL 3801-AU18-SCHE El Yann BB C 1 11:13:24.34 131.928 00:02:13 Yes
220 Frank Feenstra - MI 1906-AU18-GRM BB H 3 11:13:24.39 131.928 00:02:13 Yes
222 John Gutierrez - NM 0816-AU18-GUTZ PIED H 2 11:13:24.84 131.920 00:02:14 Yes
223 Kwan Loft - CA 0801-AU18-KWAN RBWF H 3 11:13:24.97 131.918 00:02:14 Yes
224 House Of Paine - CA 1813-AU18-GSF BC H 1 11:13:25.30 131.913 00:02:14 Yes
225 American Chinese Pigeon Association - VA 2105-AU18-ARPU 中美信鸽协会 105 BB H 2 11:13:26.13 131.899 00:02:15 Yes
226 Marian Taloi - OR 29513-AU18-AA PIED H 2 11:13:26.35 131.895 00:02:15 Yes
227 Heinsohn Boys - TX 0413-AU18-SAL BB H 2 11:13:27.01 131.884 00:02:16 Yes
228 Marengo Creek Farms - AL 3047-AU18-MCF BB H 6 11:13:27.38 131.878 00:02:16 Yes
229 G T Family Loft - IL 0117-AU18-GT BCSP H 2 11:13:27.97 131.869 00:02:17 Yes
230 Fl Lin Loft - FL 65310-AU18-ARPU BB H 3 11:13:28.06 131.867 00:02:17 Yes
231 Sarrett Racing Pigeons - TX 8054-AU18-PPH BBWF H 3 11:13:29.17 131.849 00:02:18 Yes
232 Miami Syndicate Loft - FL 1007-AU18-FMI BC H 10 11:13:30.00 131.835 00:02:19 Yes
233 A P C Loft - TX 18080-AU18-APC BB H 7 11:13:30.92 131.820 00:02:20 Yes
234 Mc Cormick Loft - CA 0204-AU18-HANG BB H 1 11:13:31.05 131.818 00:02:20 Yes
235 Miami Syndicate Loft - FL 0170-AU18-NAPL BB H 11 11:13:31.09 131.817 00:02:20 Yes
236 Floridian Loft - FL 2585-AU18-SCHE DEN 85 BB H 12 11:13:32.84 131.788 00:02:22 Yes
237 Irishsyndicatelofts - AZ 0100-AU18-IRSH BC H 2 11:13:33.35 131.780 00:02:22 Yes
238 Burge Family Loft - CA 0115-AU18-BURG DC H 1 11:13:33.62 131.776 00:02:23 Yes
239 L S U Loft - LA 0138-AU18-LSU BC H 7 11:13:34.23 131.766 00:02:23 Yes
240 Speed Loft - MN 0061-AU18-HS HEY YOU GUYS BB H 1 11:13:34.97 131.753 00:02:24 Yes
241 Hogtowns Loft - VA 22530-AU18-FOYS BC H 2 11:13:35.33 131.748 00:02:24 Yes
242 Ken & Roly - NM 2714-AU18-VITA SPLH H 8 11:13:36.07 131.735 00:02:25 Yes
242 American Chinese Pigeon Association - VA 2117-AU18-ARPU 中美信鸽协会 117 BB H 3 11:13:36.12 131.735 00:02:25 Yes
244 G & L Loft - OR 3130-AU18-WPC BB H 1 11:13:36.16 131.734 00:02:25 Yes
245 Danny Lum - HI 8836-AU18-NIC BC H 1 11:13:37.22 131.716 00:02:26 Yes
246 Kwan Loft - CA 0871-AU18-HP PIED H 4 11:13:37.31 131.715 00:02:26 Yes
247 Fassio Loft - UT 0934-AU18-SLI BC H 2 11:13:37.73 131.708 00:02:27 Yes
248 David Clausing - FL 0112-IF18-CLAU BB H 4 11:13:38.56 131.694 00:02:28 Yes
249 Miami Syndicate Loft - FL 0173-AU18-NAPL BB H 12 11:13:39.15 131.685 00:02:28 Yes
250 L S U Loft - LA 0104-AU18-LSU BB H 8 11:13:39.20 131.684 00:02:28 Yes
251 B T F - UT 5652-AU18-OGN BCWF H 1 11:13:39.47 131.680 00:02:28 Yes
252 Blue Bucket Stampede - OR 2615-AU18-CORP BB H 1 11:13:39.61 131.677 00:02:29 Yes
253 Eastern Pearl Loft - VA 0369-AU18-EPL 🈚️量 369 BC H 6 11:13:39.98 131.671 00:02:29 Yes
254 3 K\'s Loft - CA 2092-AU18-SFR BC H 3 11:13:40.57 131.661 00:02:30 Yes
255 Dream Team - VT 18712-AU18-DT BB H 5 11:13:41.18 131.651 00:02:30 Yes
256 Barry Venn - WY 18067-AU18-VENN DCWF H 2 11:13:41.87 131.640 00:02:31 Yes
257 B T F - UT 5651-AU18-OGN BB H 2 11:13:42.87 131.624 00:02:32 Yes
258 Sonder Loft - CA 8962-AU18-JEDS BC H 4 11:13:42.92 131.623 00:02:32 Yes
259 Christopher Loft - UT 8434-AU18-GS BC H 3 11:13:43.39 131.615 00:02:32 Yes
260 Floridian Loft - FL 2570-AU18-SCHE DEN 70 BC H 13 11:13:43.98 131.606 00:02:33 Yes
261 Sooner Challenge - OK 8831-AU18-TRPC 15446 X 89782 BB H 2 11:13:44.16 131.603 00:02:33 Yes
262 Vpslb.Com - CA 5203-AU18-COM RBAR H 3 11:13:45.00 131.589 00:02:34 Yes
263 R P S Loft - CA 2523-AU18-RPS ~~~~~~~~DARNA~~~~~~~~ BB H 1 11:13:45.13 131.587 00:02:34 Yes
264 Floridian Loft - FL 2583-AU18-SCHE DEN 83 BC H 14 11:13:46.64 131.562 00:02:36 Yes
265 Blue Bucket Stampede - OR 2609-AU18-CORP BB H 2 11:13:46.87 131.558 00:02:36 Yes
266 D F Chavez - TX 3424-AU18-JEDS BC H 1 11:13:47.20 131.553 00:02:36 Yes
267 Westfall Loft - MO 20913-AU18-JEDS RB H 2 11:13:47.52 131.547 00:02:37 Yes
268 Shi Loft - PA 46444-AU18-ARPU BB H 4 11:13:47.67 131.545 00:02:37 Yes
269 Friends Of Fatima - BC 57703-AU18-ARPU BB H 1 11:13:48.99 131.523 00:02:38 Yes
270 Shi Loft - PA 7790-IF18-ERIE BB H 5 11:13:49.22 131.520 00:02:38 Yes
271 Joe Sanford - CA 7404-AU18-JEDS BB H 2 11:13:50.83 131.493 00:02:40 Yes
272 A B C Loft2 - NY 51606-AU18-ARPU BC H 6 11:13:51.44 131.483 00:02:40 Yes
273 Tierney Family Loft - MD 0130-AU18-TL BB H 2 11:13:51.80 131.477 00:02:41 Yes
274 Barry Venn - WY 18083-AU18-VENN DC H 3 11:13:51.95 131.475 00:02:41 Yes
275 Fassio Loft - UT 0933-AU18-SLI DC H 3 11:13:52.81 131.461 00:02:42 Yes
276 M Merrills Loft - ID 0839-AU18-WHI DC H 2 11:13:53.13 131.456 00:02:42 Yes
277 Van Den Bossche Loft - ME 8219-IF18-CMP BB H 2 11:13:54.57 131.432 00:02:44 Yes
278 A B C Loft2 - NY 0496-IF18-CC DC H 7 11:13:54.70 131.430 00:02:44 Yes
279 500 - ID 54344-AU18-ARPU RC H 1 11:13:54.88 131.427 00:02:44 Yes
280 Igor & Sons/Evergreen Loft - OR 0629-AU18-PNW BB H 2 11:13:55.30 131.420 00:02:44 Yes
281 Joe Sanford - CA 7411-AU18-JEDS BB H 3 11:13:56.58 131.399 00:02:46 Yes
282 3 K\'s Loft - CA 2093-AU18-SFR RBWF H 4 11:13:56.90 131.394 00:02:46 Yes
283 Arnold Balatbat - CA 12422-AU18-JEDS CBSKANI X TDMSVR BB H 1 11:13:57.09 131.391 00:02:46 Yes
284 Mc Cormick Loft - CA 0207-AU18-HANG ANDY H 2 11:13:57.41 131.386 00:02:46 Yes
285 Life & Horizon Loft - WA 2143-AU18-CBF DC H 1 11:13:58.07 131.375 00:02:47 Yes
286 Racing Pigeon Mall - WA 0806-AU18-RPM BB H 1 11:13:58.19 131.373 00:02:47 Yes
287 Sam A Miller - KY 4117-AU18-FOYS BBWF H 1 11:13:58.23 131.372 00:02:47 Yes
288 Yang Family Racing - CA 0011-AU18-YS 155 X 138 BB H 1 11:13:58.52 131.367 00:02:48 Yes
289 A P C Loft - TX 18103-AU18-APC BB H 8 11:13:59.62 131.349 00:02:49 Yes
289 Valdes & Rudy Loft - FL 3828-AU18-SCHE Omarito BB H 2 11:13:59.67 131.349 00:02:49 Yes
291 Friends Of Fatima - BC 57741-AU18-ARPU BB H 2 11:13:59.85 131.346 00:02:49 Yes
292 Transilvania Loft - NV 0005-AU18-CFL BB H 1 11:14:00.22 131.340 00:02:49 Yes
293 Huan Qiu Zhang - NC 0023-AU18-HQZ BBWF H 3 11:14:00.27 131.339 00:02:49 Yes
294 Hawaii Syndicate - HI 0183-AU18-FIA BB H 3 11:14:00.73 131.331 00:02:50 Yes
295 D F Chavez - TX 3429-AU18-JEDS BCWF H 2 11:14:02.01 131.310 00:02:51 Yes
296 Perrin - WA 4051-AU18-CORP BC H 1 11:14:02.20 131.307 00:02:51 Yes
297 Huan Qiu Zhang - NC 0022-AU18-HQZ BB H 4 11:14:02.33 131.305 00:02:51 Yes
298 Joe Sanford - CA 7401-AU18-JEDS BB H 4 11:14:03.12 131.292 00:02:52 Yes
298 American Lofts - OR 2565-AU18-CORP BB H 4 11:14:03.16 131.292 00:02:52 Yes
300 Blue Bucket Stampede - OR 2608-AU18-CORP BB H 3 11:14:04.04 131.277 00:02:53 Yes

There are 968 bird records

Note: These Race Results are unofficial and subject to change until verified by the Race Committee and declared final.